TRINITY LAKE (CLE)

Elevation: 2370' · TRINITY R basin · Operator: US Bureau of Reclamation

Provisional data, subject to change.
Query executed Saturday at 4:52:38   clock

Select a sensor type for a plot of data.
Note: Reservoir Flows are daily averages.

Earlier

Date RES ELE    STORAGE    RES CHG    OUTFLOW    INFLOW    EVAP    FNF    RIV REL    PPT INC    SPILL    DIS PWR   
 FEET   AF   AF   CFS   CFS   CFS   CFS   CFS   INCHES   CFS   CFS  
01/14/2016 2187.50 515592 4389 473 2693 7 2693 0 0.19 0 473
01/15/2016 2187.96 518153 2561 453 1744 0 1744 0 0.79 0 453
01/16/2016 2188.61 521793 3640 167 2002 0 2002 0 0.68 0 167
01/17/2016 2191.90 540430 18637 0 9396 0 9396 0 0.67 0 0
01/18/2016 2194.87 557671 17241 167 8859 0 8859 0 1.56 0 167
01/19/2016 2197.98 576160 18489 100 9421 0 9421 0 0.84 0 100
01/20/2016 2200.03 588597 12437 0 6270 0 6270 0 0.09 0 0
01/21/2016 2201.21 595844 7247 28 3686 4 3686 28 0.01 0 0
01/22/2016 2203.46 609815 13971 357 7412 11 7412 0 0.37 0 357
01/23/2016 2205.97 625641 15826 172 8155 4 8155 0 0.25 0 172
01/24/2016 2207.48 635294 9653 304 5177 6 5177 0 0.06 0 304
01/25/2016 2208.50 641866 6572 336 3655 6 3655 0 0.51 0 336
01/26/2016 2209.15 646073 4207 443 2566 2 2566 0 0.00 0 443
01/27/2016 2209.82 650432 4359 254 2456 4 2456 0 0.00 0 254
01/28/2016 2210.69 656126 5694 113 2984 0 2984 0 0.05 0 113
01/29/2016 2213.20 672795 16669 383 8791 4 8791 0 1.83 0 383
01/30/2016 2215.17 686144 13349 213 6955 12 6955 0 0.47 0 213
01/31/2016 2216.39 694531 8387 227 4473 18 4473 0 0.00 0 227
02/01/2016 2217.27 700634 6103 220 3297 0 3297 0 0.00 0 220
02/02/2016 2217.98 705588 4954 254 2752 0 2752 0 0.26 0 254
02/03/2016 2218.62 710092 4504 148 2419 0 2419 0 0.00 0 148
02/04/2016 2219.13 713690 3598 192 2006 0 2006 0 0.24 0 192
02/05/2016 2219.55 716673 2983 279 1789 6 1789 0 0.00 0 279
02/06/2016 2219.95 719513 2840 214 1650 4 1650 0 0.00 0 214
02/07/2016 2220.38 722586 3073 216 1784 19 1784 0 0.00 0 216
02/08/2016 2220.88 726163 3577 273 2087 11 2087 0 0.00 0 273
02/09/2016 2221.51 730692 4529 273 2564 8 2564 0 0.00 0 273
02/10/2016 2222.13 735161 4469 432 2696 11 2696 0 0.00 0 432
02/11/2016 2222.80 740013 4852 295 2743 2 2743 0 0.00 0 295
02/12/2016 2223.46 744814 4801 692 3125 13 -- 0 0.00 0 692
02/13/2016 -- -- -- -- -- -- -- -- -- -- --

Later | Latest

Warning! This data is preliminary and subject to revision.

Show CLE Map | Plot CLE Data | 1 Month CLE Data | Real-Time CLE Data | CLE Info